Terminal Aerodrome Forecast
Issued by NWS Paducah, KY

Home | Current Version | Previous Version | Text Only | Print | Product List | Glossary On
Versions: 1 2 3 4 5 6 7 8 9 10 11 12 13 14 15 16 17 18 19
000
FTUS43 KPAH 251137
TAFPAH
TAF
KPAH 251137Z 2512/2612 00000KT P6SM SCT040 SCT300
      TEMPO 2512/2513 4SM BR
     FM251400 20005KT P6SM FEW040 BKN250
     FM260100 VRB02KT P6SM SCT250=

USA.gov is the U.S. government's official web portal to all federal, state and local government web resources and services.